sensor_id;sensor_type;location;lat;lon;timestamp;P1;durP1;ratioP1;P2;durP2;ratioP2
84672;SDS011;74899;42.256;23.284;2024-02-15T00:02:23;11.00;;;7.53;;
84672;SDS011;74899;42.256;23.284;2024-02-15T00:04:49;16.67;;;8.85;;
84672;SDS011;74899;42.256;23.284;2024-02-15T00:07:18;14.50;;;8.23;;
84672;SDS011;74899;42.256;23.284;2024-02-15T00:09:47;17.23;;;9.68;;
84672;SDS011;74899;42.256;23.284;2024-02-15T00:12:14;16.83;;;9.95;;
84672;SDS011;74899;42.256;23.284;2024-02-15T00:14:39;14.05;;;9.23;;
84672;SDS011;74899;42.256;23.284;2024-02-15T00:17:06;11.70;;;7.95;;
84672;SDS011;74899;42.256;23.284;2024-02-15T00:19:32;9.63;;;7.38;;
84672;SDS011;74899;42.256;23.284;2024-02-15T00:21:58;14.65;;;8.23;;
84672;SDS011;74899;42.256;23.284;2024-02-15T00:24:25;18.15;;;10.07;;
84672;SDS011;74899;42.256;23.284;2024-02-15T00:26:51;13.77;;;9.05;;
84672;SDS011;74899;42.256;23.284;2024-02-15T00:29:17;11.23;;;7.97;;
84672;SDS011;74899;42.256;23.284;2024-02-15T00:31:44;10.65;;;7.47;;
84672;SDS011;74899;42.256;23.284;2024-02-15T00:34:10;10.82;;;7.55;;
84672;SDS011;74899;42.256;23.284;2024-02-15T00:36:36;11.25;;;7.22;;
84672;SDS011;74899;42.256;23.284;2024-02-15T00:39:02;7.70;;;6.88;;
84672;SDS011;74899;42.256;23.284;2024-02-15T00:41:29;8.68;;;6.82;;
84672;SDS011;74899;42.256;23.284;2024-02-15T00:43:56;15.70;;;9.07;;
84672;SDS011;74899;42.256;23.284;2024-02-15T00:46:22;18.88;;;9.15;;
84672;SDS011;74899;42.256;23.284;2024-02-15T00:48:48;18.58;;;9.23;;
84672;SDS011;74899;42.256;23.284;2024-02-15T00:51:14;13.00;;;8.40;;
84672;SDS011;74899;42.256;23.284;2024-02-15T00:53:40;11.10;;;7.88;;
84672;SDS011;74899;42.256;23.284;2024-02-15T00:56:06;15.88;;;9.38;;
84672;SDS011;74899;42.256;23.284;2024-02-15T00:58:32;14.93;;;8.32;;
84672;SDS011;74899;42.256;23.284;2024-02-15T01:00:58;11.95;;;8.50;;
84672;SDS011;74899;42.256;23.284;2024-02-15T01:03:25;15.55;;;9.23;;
84672;SDS011;74899;42.256;23.284;2024-02-15T01:05:51;14.85;;;8.38;;
84672;SDS011;74899;42.256;23.284;2024-02-15T01:08:19;11.15;;;7.25;;
84672;SDS011;74899;42.256;23.284;2024-02-15T01:10:46;10.68;;;7.40;;
84672;SDS011;74899;42.256;23.284;2024-02-15T01:13:12;13.63;;;7.93;;
84672;SDS011;74899;42.256;23.284;2024-02-15T01:15:38;11.63;;;7.82;;
84672;SDS011;74899;42.256;23.284;2024-02-15T01:18:06;16.05;;;8.38;;
84672;SDS011;74899;42.256;23.284;2024-02-15T01:20:33;18.80;;;9.15;;
84672;SDS011;74899;42.256;23.284;2024-02-15T01:22:58;12.82;;;8.32;;
84672;SDS011;74899;42.256;23.284;2024-02-15T01:25:24;13.13;;;7.40;;
84672;SDS011;74899;42.256;23.284;2024-02-15T01:27:49;10.57;;;6.95;;
84672;SDS011;74899;42.256;23.284;2024-02-15T01:30:16;10.48;;;6.47;;
84672;SDS011;74899;42.256;23.284;2024-02-15T01:32:42;12.77;;;7.68;;
84672;SDS011;74899;42.256;23.284;2024-02-15T01:35:08;9.45;;;7.03;;
84672;SDS011;74899;42.256;23.284;2024-02-15T01:37:36;11.80;;;8.20;;
84672;SDS011;74899;42.256;23.284;2024-02-15T01:40:02;11.90;;;7.93;;
84672;SDS011;74899;42.256;23.284;2024-02-15T01:42:28;15.18;;;8.20;;
84672;SDS011;74899;42.256;23.284;2024-02-15T01:44:54;13.00;;;8.07;;
84672;SDS011;74899;42.256;23.284;2024-02-15T01:47:20;10.30;;;6.78;;
84672;SDS011;74899;42.256;23.284;2024-02-15T01:49:48;10.07;;;6.40;;
84672;SDS011;74899;42.256;23.284;2024-02-15T01:52:14;11.80;;;6.32;;
84672;SDS011;74899;42.256;23.284;2024-02-15T01:54:42;8.38;;;6.85;;
84672;SDS011;74899;42.256;23.284;2024-02-15T01:57:08;9.57;;;6.30;;
84672;SDS011;74899;42.256;23.284;2024-02-15T01:59:34;8.80;;;6.80;;
84672;SDS011;74899;42.256;23.284;2024-02-15T02:02:00;10.05;;;6.50;;
84672;SDS011;74899;42.256;23.284;2024-02-15T02:04:29;12.77;;;6.05;;
84672;SDS011;74899;42.256;23.284;2024-02-15T02:06:57;10.32;;;6.93;;
84672;SDS011;74899;42.256;23.284;2024-02-15T02:09:23;12.25;;;6.85;;
84672;SDS011;74899;42.256;23.284;2024-02-15T02:11:49;10.07;;;5.57;;
84672;SDS011;74899;42.256;23.284;2024-02-15T02:14:16;7.78;;;5.32;;
84672;SDS011;74899;42.256;23.284;2024-02-15T02:16:43;11.45;;;6.00;;
84672;SDS011;74899;42.256;23.284;2024-02-15T02:19:08;7.78;;;5.55;;
84672;SDS011;74899;42.256;23.284;2024-02-15T02:21:35;6.75;;;5.78;;
84672;SDS011;74899;42.256;23.284;2024-02-15T02:24:04;8.73;;;5.75;;
84672;SDS011;74899;42.256;23.284;2024-02-15T02:26:47;7.15;;;6.45;;
84672;SDS011;74899;42.256;23.284;2024-02-15T02:29:19;8.80;;;6.28;;
84672;SDS011;74899;42.256;23.284;2024-02-15T02:31:47;8.45;;;6.10;;
84672;SDS011;74899;42.256;23.284;2024-02-15T02:34:14;6.40;;;5.22;;
84672;SDS011;74899;42.256;23.284;2024-02-15T02:36:43;8.25;;;5.65;;
84672;SDS011;74899;42.256;23.284;2024-02-15T02:39:09;11.57;;;5.72;;
84672;SDS011;74899;42.256;23.284;2024-02-15T02:41:36;10.75;;;5.88;;
84672;SDS011;74899;42.256;23.284;2024-02-15T02:44:02;7.65;;;6.18;;
84672;SDS011;74899;42.256;23.284;2024-02-15T02:46:27;9.73;;;7.00;;
84672;SDS011;74899;42.256;23.284;2024-02-15T02:48:53;8.00;;;6.47;;
84672;SDS011;74899;42.256;23.284;2024-02-15T02:51:19;8.65;;;6.22;;
84672;SDS011;74899;42.256;23.284;2024-02-15T02:53:45;8.93;;;5.68;;
84672;SDS011;74899;42.256;23.284;2024-02-15T02:56:11;8.02;;;5.82;;
84672;SDS011;74899;42.256;23.284;2024-02-15T02:58:38;7.88;;;5.30;;
84672;SDS011;74899;42.256;23.284;2024-02-15T03:01:07;9.27;;;5.47;;
84672;SDS011;74899;42.256;23.284;2024-02-15T03:03:34;5.65;;;4.70;;
84672;SDS011;74899;42.256;23.284;2024-02-15T03:05:59;8.70;;;5.55;;
84672;SDS011;74899;42.256;23.284;2024-02-15T03:08:27;14.43;;;9.65;;
84672;SDS011;74899;42.256;23.284;2024-02-15T03:10:53;13.50;;;8.18;;
84672;SDS011;74899;42.256;23.284;2024-02-15T03:13:21;16.02;;;7.32;;
84672;SDS011;74899;42.256;23.284;2024-02-15T03:15:48;9.50;;;6.90;;
84672;SDS011;74899;42.256;23.284;2024-02-15T03:18:17;6.10;;;5.15;;
84672;SDS011;74899;42.256;23.284;2024-02-15T03:20:43;8.85;;;5.75;;
84672;SDS011;74899;42.256;23.284;2024-02-15T03:23:09;5.95;;;5.45;;
84672;SDS011;74899;42.256;23.284;2024-02-15T03:25:35;6.60;;;5.22;;
84672;SDS011;74899;42.256;23.284;2024-02-15T03:28:01;5.53;;;5.07;;
84672;SDS011;74899;42.256;23.284;2024-02-15T03:30:32;5.75;;;4.30;;
84672;SDS011;74899;42.256;23.284;2024-02-15T03:33:00;7.07;;;4.63;;
84672;SDS011;74899;42.256;23.284;2024-02-15T03:35:30;5.53;;;5.03;;
84672;SDS011;74899;42.256;23.284;2024-02-15T03:37:56;7.20;;;5.28;;
84672;SDS011;74899;42.256;23.284;2024-02-15T03:40:22;13.23;;;6.80;;
84672;SDS011;74899;42.256;23.284;2024-02-15T03:42:51;5.57;;;4.78;;
84672;SDS011;74899;42.256;23.284;2024-02-15T03:45:18;5.18;;;3.97;;
84672;SDS011;74899;42.256;23.284;2024-02-15T03:47:44;3.58;;;3.28;;
84672;SDS011;74899;42.256;23.284;2024-02-15T03:50:11;5.43;;;4.85;;
84672;SDS011;74899;42.256;23.284;2024-02-15T03:52:40;4.88;;;3.67;;
84672;SDS011;74899;42.256;23.284;2024-02-15T03:55:06;4.72;;;4.30;;
84672;SDS011;74899;42.256;23.284;2024-02-15T03:57:33;5.03;;;4.40;;
84672;SDS011;74899;42.256;23.284;2024-02-15T04:00:00;7.65;;;4.30;;
84672;SDS011;74899;42.256;23.284;2024-02-15T04:02:26;3.97;;;3.60;;
84672;SDS011;74899;42.256;23.284;2024-02-15T04:04:53;4.13;;;3.03;;
84672;SDS011;74899;42.256;23.284;2024-02-15T04:07:21;9.15;;;4.50;;
84672;SDS011;74899;42.256;23.284;2024-02-15T04:09:48;8.35;;;5.15;;
84672;SDS011;74899;42.256;23.284;2024-02-15T04:12:14;9.88;;;6.90;;
84672;SDS011;74899;42.256;23.284;2024-02-15T04:14:40;6.15;;;5.63;;
84672;SDS011;74899;42.256;23.284;2024-02-15T04:17:10;5.78;;;4.72;;
84672;SDS011;74899;42.256;23.284;2024-02-15T04:19:39;6.03;;;4.88;;
84672;SDS011;74899;42.256;23.284;2024-02-15T04:22:05;4.80;;;4.40;;
84672;SDS011;74899;42.256;23.284;2024-02-15T04:24:33;4.85;;;4.35;;
84672;SDS011;74899;42.256;23.284;2024-02-15T04:26:59;4.55;;;4.13;;
84672;SDS011;74899;42.256;23.284;2024-02-15T04:29:25;5.25;;;4.68;;
84672;SDS011;74899;42.256;23.284;2024-02-15T04:31:51;7.57;;;5.80;;
84672;SDS011;74899;42.256;23.284;2024-02-15T04:34:20;36.83;;;20.45;;
84672;SDS011;74899;42.256;23.284;2024-02-15T04:36:46;10.13;;;6.82;;
84672;SDS011;74899;42.256;23.284;2024-02-15T04:39:19;10.63;;;7.63;;
84672;SDS011;74899;42.256;23.284;2024-02-15T04:41:55;14.55;;;6.80;;
84672;SDS011;74899;42.256;23.284;2024-02-15T04:44:21;7.95;;;5.95;;
84672;SDS011;74899;42.256;23.284;2024-02-15T04:46:52;14.00;;;8.85;;
84672;SDS011;74899;42.256;23.284;2024-02-15T04:49:19;9.35;;;7.15;;
84672;SDS011;74899;42.256;23.284;2024-02-15T04:51:53;7.60;;;6.60;;
84672;SDS011;74899;42.256;23.284;2024-02-15T04:54:20;4.63;;;4.32;;
84672;SDS011;74899;42.256;23.284;2024-02-15T04:56:47;6.63;;;6.03;;
84672;SDS011;74899;42.256;23.284;2024-02-15T04:59:13;4.65;;;4.22;;
84672;SDS011;74899;42.256;23.284;2024-02-15T05:01:42;6.57;;;4.57;;
84672;SDS011;74899;42.256;23.284;2024-02-15T05:04:11;3.20;;;3.00;;
84672;SDS011;74899;42.256;23.284;2024-02-15T05:06:39;3.67;;;3.38;;
84672;SDS011;74899;42.256;23.284;2024-02-15T05:09:06;4.10;;;3.70;;
84672;SDS011;74899;42.256;23.284;2024-02-15T05:11:40;3.50;;;3.25;;
84672;SDS011;74899;42.256;23.284;2024-02-15T05:14:15;4.03;;;3.63;;
84672;SDS011;74899;42.256;23.284;2024-02-15T05:16:46;3.65;;;3.38;;
84672;SDS011;74899;42.256;23.284;2024-02-15T05:19:13;4.35;;;3.95;;
84672;SDS011;74899;42.256;23.284;2024-02-15T05:21:39;3.55;;;3.35;;
84672;SDS011;74899;42.256;23.284;2024-02-15T05:24:05;4.85;;;4.32;;
84672;SDS011;74899;42.256;23.284;2024-02-15T05:26:31;7.28;;;5.15;;
84672;SDS011;74899;42.256;23.284;2024-02-15T05:28:57;4.63;;;4.20;;
84672;SDS011;74899;42.256;23.284;2024-02-15T05:31:23;4.30;;;3.72;;
84672;SDS011;74899;42.256;23.284;2024-02-15T05:33:51;3.83;;;3.53;;
84672;SDS011;74899;42.256;23.284;2024-02-15T05:36:18;7.80;;;4.72;;
84672;SDS011;74899;42.256;23.284;2024-02-15T05:38:52;9.00;;;6.13;;
84672;SDS011;74899;42.256;23.284;2024-02-15T05:41:19;13.18;;;9.88;;
84672;SDS011;74899;42.256;23.284;2024-02-15T05:43:45;6.22;;;4.13;;
84672;SDS011;74899;42.256;23.284;2024-02-15T05:46:13;5.05;;;4.40;;
84672;SDS011;74899;42.256;23.284;2024-02-15T05:48:39;42.10;;;22.10;;
84672;SDS011;74899;42.256;23.284;2024-02-15T05:51:05;9.13;;;8.20;;
84672;SDS011;74899;42.256;23.284;2024-02-15T05:53:32;5.90;;;5.28;;
84672;SDS011;74899;42.256;23.284;2024-02-15T05:56:01;7.20;;;5.05;;
84672;SDS011;74899;42.256;23.284;2024-02-15T05:58:29;9.00;;;5.72;;
84672;SDS011;74899;42.256;23.284;2024-02-15T06:00:55;10.57;;;5.72;;
84672;SDS011;74899;42.256;23.284;2024-02-15T06:03:25;103.70;;;30.75;;
84672;SDS011;74899;42.256;23.284;2024-02-15T06:05:51;18.33;;;12.13;;
84672;SDS011;74899;42.256;23.284;2024-02-15T06:08:17;19.23;;;8.60;;
84672;SDS011;74899;42.256;23.284;2024-02-15T06:10:43;30.85;;;12.65;;
84672;SDS011;74899;42.256;23.284;2024-02-15T06:13:09;14.23;;;9.90;;
84672;SDS011;74899;42.256;23.284;2024-02-15T06:15:35;19.30;;;9.93;;
84672;SDS011;74899;42.256;23.284;2024-02-15T06:18:01;21.45;;;10.00;;
84672;SDS011;74899;42.256;23.284;2024-02-15T06:20:28;12.20;;;7.95;;
84672;SDS011;74899;42.256;23.284;2024-02-15T06:22:55;13.68;;;9.18;;
84672;SDS011;74899;42.256;23.284;2024-02-15T06:25:21;17.20;;;10.93;;
84672;SDS011;74899;42.256;23.284;2024-02-15T06:27:48;15.45;;;9.30;;
84672;SDS011;74899;42.256;23.284;2024-02-15T06:30:16;15.82;;;9.07;;
84672;SDS011;74899;42.256;23.284;2024-02-15T06:33:00;25.35;;;11.73;;
84672;SDS011;74899;42.256;23.284;2024-02-15T06:35:44;16.98;;;9.30;;
84672;SDS011;74899;42.256;23.284;2024-02-15T06:38:28;15.73;;;8.90;;
84672;SDS011;74899;42.256;23.284;2024-02-15T06:41:13;14.52;;;8.20;;
84672;SDS011;74899;42.256;23.284;2024-02-15T06:43:39;13.32;;;6.88;;
84672;SDS011;74899;42.256;23.284;2024-02-15T06:46:08;25.80;;;12.23;;
84672;SDS011;74899;42.256;23.284;2024-02-15T06:48:35;17.70;;;10.57;;
84672;SDS011;74899;42.256;23.284;2024-02-15T06:51:02;13.45;;;7.57;;
84672;SDS011;74899;42.256;23.284;2024-02-15T06:53:29;13.18;;;7.40;;
84672;SDS011;74899;42.256;23.284;2024-02-15T06:55:55;11.05;;;6.65;;
84672;SDS011;74899;42.256;23.284;2024-02-15T06:58:21;10.43;;;6.85;;
84672;SDS011;74899;42.256;23.284;2024-02-15T07:00:47;12.18;;;7.18;;
84672;SDS011;74899;42.256;23.284;2024-02-15T07:03:14;22.65;;;8.90;;
84672;SDS011;74899;42.256;23.284;2024-02-15T07:05:41;14.10;;;8.48;;
84672;SDS011;74899;42.256;23.284;2024-02-15T07:08:07;10.98;;;7.18;;
84672;SDS011;74899;42.256;23.284;2024-02-15T07:10:37;18.77;;;8.68;;
84672;SDS011;74899;42.256;23.284;2024-02-15T07:13:03;8.95;;;6.53;;
84672;SDS011;74899;42.256;23.284;2024-02-15T07:15:29;7.78;;;5.68;;
84672;SDS011;74899;42.256;23.284;2024-02-15T07:17:58;8.10;;;5.65;;
84672;SDS011;74899;42.256;23.284;2024-02-15T07:20:24;15.50;;;8.60;;
84672;SDS011;74899;42.256;23.284;2024-02-15T07:22:50;20.17;;;9.27;;
84672;SDS011;74899;42.256;23.284;2024-02-15T07:25:16;15.05;;;9.20;;
84672;SDS011;74899;42.256;23.284;2024-02-15T07:27:43;8.40;;;6.80;;
84672;SDS011;74899;42.256;23.284;2024-02-15T07:30:08;7.68;;;5.65;;
84672;SDS011;74899;42.256;23.284;2024-02-15T07:32:34;5.70;;;5.20;;
84672;SDS011;74899;42.256;23.284;2024-02-15T07:35:00;6.82;;;5.60;;
84672;SDS011;74899;42.256;23.284;2024-02-15T07:37:26;5.18;;;4.68;;
84672;SDS011;74899;42.256;23.284;2024-02-15T07:39:52;6.18;;;5.68;;
84672;SDS011;74899;42.256;23.284;2024-02-15T07:42:18;6.22;;;5.05;;
84672;SDS011;74899;42.256;23.284;2024-02-15T07:44:43;17.65;;;10.32;;
84672;SDS011;74899;42.256;23.284;2024-02-15T07:47:09;18.20;;;9.05;;
84672;SDS011;74899;42.256;23.284;2024-02-15T07:49:38;10.48;;;9.43;;
84672;SDS011;74899;42.256;23.284;2024-02-15T07:52:03;6.40;;;5.88;;
84672;SDS011;74899;42.256;23.284;2024-02-15T07:54:32;7.78;;;5.40;;
84672;SDS011;74899;42.256;23.284;2024-02-15T07:56:58;10.25;;;7.15;;
84672;SDS011;74899;42.256;23.284;2024-02-15T07:59:24;15.02;;;9.73;;
84672;SDS011;74899;42.256;23.284;2024-02-15T08:01:50;10.98;;;7.88;;
84672;SDS011;74899;42.256;23.284;2024-02-15T08:04:18;63.60;;;28.60;;
84672;SDS011;74899;42.256;23.284;2024-02-15T08:06:48;26.65;;;14.10;;
84672;SDS011;74899;42.256;23.284;2024-02-15T08:09:16;26.73;;;14.45;;
84672;SDS011;74899;42.256;23.284;2024-02-15T08:11:43;67.45;;;31.58;;
84672;SDS011;74899;42.256;23.284;2024-02-15T08:14:09;46.05;;;20.70;;
84672;SDS011;74899;42.256;23.284;2024-02-15T08:16:36;31.67;;;16.40;;
84672;SDS011;74899;42.256;23.284;2024-02-15T08:19:06;36.72;;;15.63;;
84672;SDS011;74899;42.256;23.284;2024-02-15T08:21:32;20.10;;;10.98;;
84672;SDS011;74899;42.256;23.284;2024-02-15T08:24:00;20.00;;;13.55;;
84672;SDS011;74899;42.256;23.284;2024-02-15T08:26:36;25.15;;;11.95;;
84672;SDS011;74899;42.256;23.284;2024-02-15T08:29:03;35.33;;;17.52;;
84672;SDS011;74899;42.256;23.284;2024-02-15T08:31:29;31.00;;;16.65;;
84672;SDS011;74899;42.256;23.284;2024-02-15T08:33:59;34.95;;;15.38;;
84672;SDS011;74899;42.256;23.284;2024-02-15T08:36:25;37.30;;;18.05;;
84672;SDS011;74899;42.256;23.284;2024-02-15T08:38:51;33.50;;;17.65;;
84672;SDS011;74899;42.256;23.284;2024-02-15T08:41:17;41.60;;;17.20;;
84672;SDS011;74899;42.256;23.284;2024-02-15T08:43:46;31.15;;;14.50;;
84672;SDS011;74899;42.256;23.284;2024-02-15T08:46:13;22.83;;;12.60;;
84672;SDS011;74899;42.256;23.284;2024-02-15T08:48:39;27.70;;;14.23;;
84672;SDS011;74899;42.256;23.284;2024-02-15T08:51:06;32.38;;;16.55;;
84672;SDS011;74899;42.256;23.284;2024-02-15T08:53:34;34.97;;;18.90;;
84672;SDS011;74899;42.256;23.284;2024-02-15T08:56:01;46.83;;;21.85;;
84672;SDS011;74899;42.256;23.284;2024-02-15T08:58:28;35.38;;;19.80;;
84672;SDS011;74899;42.256;23.284;2024-02-15T09:00:55;28.23;;;16.30;;
84672;SDS011;74899;42.256;23.284;2024-02-15T09:03:23;24.63;;;15.77;;
84672;SDS011;74899;42.256;23.284;2024-02-15T09:05:49;27.92;;;15.18;;
84672;SDS011;74899;42.256;23.284;2024-02-15T09:08:14;34.95;;;17.60;;
84672;SDS011;74899;42.256;23.284;2024-02-15T09:10:46;41.88;;;21.02;;
84672;SDS011;74899;42.256;23.284;2024-02-15T09:13:12;36.80;;;20.02;;
84672;SDS011;74899;42.256;23.284;2024-02-15T09:15:38;41.05;;;19.88;;
84672;SDS011;74899;42.256;23.284;2024-02-15T09:18:05;41.75;;;22.27;;
84672;SDS011;74899;42.256;23.284;2024-02-15T09:20:34;37.55;;;20.60;;
84672;SDS011;74899;42.256;23.284;2024-02-15T09:23:02;34.67;;;18.67;;
84672;SDS011;74899;42.256;23.284;2024-02-15T09:25:34;27.70;;;14.48;;
84672;SDS011;74899;42.256;23.284;2024-02-15T09:28:01;28.55;;;15.75;;
84672;SDS011;74899;42.256;23.284;2024-02-15T09:30:28;29.02;;;14.80;;
84672;SDS011;74899;42.256;23.284;2024-02-15T09:32:54;24.52;;;14.38;;
84672;SDS011;74899;42.256;23.284;2024-02-15T09:35:19;25.92;;;14.45;;
84672;SDS011;74899;42.256;23.284;2024-02-15T09:37:46;22.00;;;12.55;;
84672;SDS011;74899;42.256;23.284;2024-02-15T09:40:17;16.85;;;10.90;;
84672;SDS011;74899;42.256;23.284;2024-02-15T09:42:43;22.77;;;10.82;;
84672;SDS011;74899;42.256;23.284;2024-02-15T09:45:11;17.60;;;11.65;;
84672;SDS011;74899;42.256;23.284;2024-02-15T09:47:41;14.82;;;9.60;;
84672;SDS011;74899;42.256;23.284;2024-02-15T09:50:11;10.45;;;8.50;;
84672;SDS011;74899;42.256;23.284;2024-02-15T09:52:43;8.25;;;6.50;;
84672;SDS011;74899;42.256;23.284;2024-02-15T09:55:10;10.48;;;6.35;;
84672;SDS011;74899;42.256;23.284;2024-02-15T09:57:39;5.00;;;4.00;;
84672;SDS011;74899;42.256;23.284;2024-02-15T10:00:09;4.25;;;3.78;;
84672;SDS011;74899;42.256;23.284;2024-02-15T10:02:42;10.85;;;4.90;;
84672;SDS011;74899;42.256;23.284;2024-02-15T10:05:12;3.88;;;3.58;;
84672;SDS011;74899;42.256;23.284;2024-02-15T10:07:39;8.13;;;4.60;;
84672;SDS011;74899;42.256;23.284;2024-02-15T10:10:17;9.93;;;5.90;;
84672;SDS011;74899;42.256;23.284;2024-02-15T10:12:47;6.35;;;5.40;;
84672;SDS011;74899;42.256;23.284;2024-02-15T10:15:35;4.82;;;4.38;;
84672;SDS011;74899;42.256;23.284;2024-02-15T10:18:01;4.63;;;3.95;;
84672;SDS011;74899;42.256;23.284;2024-02-15T10:20:35;5.53;;;5.15;;
84672;SDS011;74899;42.256;23.284;2024-02-15T10:25:40;4.30;;;3.90;;
84672;SDS011;74899;42.256;23.284;2024-02-15T10:28:10;5.70;;;5.18;;
84672;SDS011;74899;42.256;23.284;2024-02-15T10:30:37;6.00;;;4.70;;
84672;SDS011;74899;42.256;23.284;2024-02-15T10:33:04;4.10;;;3.67;;
84672;SDS011;74899;42.256;23.284;2024-02-15T10:35:32;8.95;;;4.13;;
84672;SDS011;74899;42.256;23.284;2024-02-15T10:38:09;3.97;;;3.67;;
84672;SDS011;74899;42.256;23.284;2024-02-15T10:40:38;4.55;;;4.15;;
84672;SDS011;74899;42.256;23.284;2024-02-15T10:43:09;4.03;;;3.63;;
84672;SDS011;74899;42.256;23.284;2024-02-15T10:45:38;4.60;;;4.20;;
84672;SDS011;74899;42.256;23.284;2024-02-15T10:48:10;5.30;;;4.78;;
84672;SDS011;74899;42.256;23.284;2024-02-15T10:50:41;8.48;;;4.85;;
84672;SDS011;74899;42.256;23.284;2024-02-15T10:53:27;10.18;;;3.17;;
84672;SDS011;74899;42.256;23.284;2024-02-15T10:58:32;2.85;;;2.53;;
84672;SDS011;74899;42.256;23.284;2024-02-15T11:01:00;2.72;;;2.10;;
84672;SDS011;74899;42.256;23.284;2024-02-15T11:03:41;2.65;;;2.45;;
84672;SDS011;74899;42.256;23.284;2024-02-15T11:06:16;7.93;;;3.60;;
84672;SDS011;74899;42.256;23.284;2024-02-15T11:08:44;2.60;;;2.40;;
84672;SDS011;74899;42.256;23.284;2024-02-15T11:11:10;2.40;;;2.30;;
84672;SDS011;74899;42.256;23.284;2024-02-15T11:13:39;4.22;;;2.97;;
84672;SDS011;74899;42.256;23.284;2024-02-15T11:16:05;3.53;;;3.22;;
84672;SDS011;74899;42.256;23.284;2024-02-15T11:21:13;3.88;;;3.58;;
84672;SDS011;74899;42.256;23.284;2024-02-15T11:23:40;4.05;;;3.67;;
84672;SDS011;74899;42.256;23.284;2024-02-15T11:40:19;2.42;;;2.33;;
84672;SDS011;74899;42.256;23.284;2024-02-15T11:42:49;2.15;;;2.05;;
84672;SDS011;74899;42.256;23.284;2024-02-15T11:45:18;2.00;;;1.90;;
84672;SDS011;74899;42.256;23.284;2024-02-15T11:47:46;2.00;;;1.90;;
84672;SDS011;74899;42.256;23.284;2024-02-15T11:50:17;3.20;;;2.88;;
84672;SDS011;74899;42.256;23.284;2024-02-15T11:52:45;4.57;;;4.25;;
84672;SDS011;74899;42.256;23.284;2024-02-15T11:55:13;3.65;;;3.45;;
84672;SDS011;74899;42.256;23.284;2024-02-15T11:57:44;4.18;;;3.67;;
84672;SDS011;74899;42.256;23.284;2024-02-15T12:00:42;3.92;;;3.63;;
84672;SDS011;74899;42.256;23.284;2024-02-15T12:03:26;4.05;;;3.67;;
84672;SDS011;74899;42.256;23.284;2024-02-15T12:06:11;4.72;;;4.10;;
84672;SDS011;74899;42.256;23.284;2024-02-15T12:08:55;3.95;;;2.72;;
84672;SDS011;74899;42.256;23.284;2024-02-15T12:11:39;3.17;;;3.00;;
84672;SDS011;74899;42.256;23.284;2024-02-15T12:14:24;3.22;;;3.03;;
84672;SDS011;74899;42.256;23.284;2024-02-15T12:17:09;4.00;;;3.70;;
84672;SDS011;74899;42.256;23.284;2024-02-15T12:19:55;3.47;;;3.28;;
84672;SDS011;74899;42.256;23.284;2024-02-15T12:25:16;9.73;;;5.47;;
84672;SDS011;74899;42.256;23.284;2024-02-15T12:27:46;18.75;;;8.95;;
84672;SDS011;74899;42.256;23.284;2024-02-15T12:30:17;11.77;;;5.50;;
84672;SDS011;74899;42.256;23.284;2024-02-15T12:32:48;17.95;;;9.43;;
84672;SDS011;74899;42.256;23.284;2024-02-15T12:35:15;3.55;;;3.25;;
84672;SDS011;74899;42.256;23.284;2024-02-15T12:38:08;3.95;;;3.50;;
84672;SDS011;74899;42.256;23.284;2024-02-15T12:43:01;5.18;;;3.47;;
84672;SDS011;74899;42.256;23.284;2024-02-15T12:45:31;2.15;;;2.05;;
84672;SDS011;74899;42.256;23.284;2024-02-15T12:48:02;2.70;;;2.50;;
84672;SDS011;74899;42.256;23.284;2024-02-15T12:50:29;4.50;;;3.05;;
84672;SDS011;74899;42.256;23.284;2024-02-15T12:52:55;7.80;;;4.60;;
84672;SDS011;74899;42.256;23.284;2024-02-15T12:55:28;10.05;;;6.10;;
84672;SDS011;74899;42.256;23.284;2024-02-15T12:57:55;2.70;;;2.60;;
84672;SDS011;74899;42.256;23.284;2024-02-15T13:02:53;3.55;;;3.35;;
84672;SDS011;74899;42.256;23.284;2024-02-15T13:05:21;5.70;;;5.13;;
84672;SDS011;74899;42.256;23.284;2024-02-15T13:07:48;9.88;;;7.15;;
84672;SDS011;74899;42.256;23.284;2024-02-15T13:10:14;7.03;;;6.07;;
84672;SDS011;74899;42.256;23.284;2024-02-15T13:12:40;4.55;;;4.20;;
84672;SDS011;74899;42.256;23.284;2024-02-15T13:15:08;3.95;;;3.30;;
84672;SDS011;74899;42.256;23.284;2024-02-15T13:17:49;7.53;;;6.68;;
84672;SDS011;74899;42.256;23.284;2024-02-15T13:20:18;7.05;;;4.97;;
84672;SDS011;74899;42.256;23.284;2024-02-15T13:23:01;4.65;;;4.28;;
84672;SDS011;74899;42.256;23.284;2024-02-15T13:25:36;6.88;;;4.93;;
84672;SDS011;74899;42.256;23.284;2024-02-15T13:28:04;3.83;;;3.63;;
84672;SDS011;74899;42.256;23.284;2024-02-15T13:30:31;4.80;;;4.03;;
84672;SDS011;74899;42.256;23.284;2024-02-15T13:32:57;2.63;;;2.53;;
84672;SDS011;74899;42.256;23.284;2024-02-15T13:35:22;3.67;;;3.47;;
84672;SDS011;74899;42.256;23.284;2024-02-15T13:37:52;7.47;;;4.43;;
84672;SDS011;74899;42.256;23.284;2024-02-15T13:40:19;5.15;;;4.13;;
84672;SDS011;74899;42.256;23.284;2024-02-15T13:42:48;4.72;;;4.32;;
84672;SDS011;74899;42.256;23.284;2024-02-15T13:47:54;4.85;;;4.45;;
84672;SDS011;74899;42.256;23.284;2024-02-15T13:50:21;3.83;;;3.55;;
84672;SDS011;74899;42.256;23.284;2024-02-15T13:52:48;2.50;;;2.38;;
84672;SDS011;74899;42.256;23.284;2024-02-15T13:55:15;2.95;;;2.75;;
84672;SDS011;74899;42.256;23.284;2024-02-15T13:57:43;3.42;;;3.17;;
84672;SDS011;74899;42.256;23.284;2024-02-15T14:00:13;5.05;;;4.55;;
84672;SDS011;74899;42.256;23.284;2024-02-15T14:02:56;12.45;;;7.75;;
84672;SDS011;74899;42.256;23.284;2024-02-15T14:05:23;5.95;;;5.38;;
84672;SDS011;74899;42.256;23.284;2024-02-15T14:07:51;17.90;;;11.45;;
84672;SDS011;74899;42.256;23.284;2024-02-15T14:10:23;16.75;;;9.60;;
84672;SDS011;74899;42.256;23.284;2024-02-15T14:12:53;8.55;;;3.90;;
84672;SDS011;74899;42.256;23.284;2024-02-15T14:15:29;19.88;;;11.75;;
84672;SDS011;74899;42.256;23.284;2024-02-15T14:17:56;7.25;;;5.75;;
84672;SDS011;74899;42.256;23.284;2024-02-15T14:20:22;20.48;;;12.98;;
84672;SDS011;74899;42.256;23.284;2024-02-15T14:22:48;17.17;;;9.88;;
84672;SDS011;74899;42.256;23.284;2024-02-15T14:25:20;10.93;;;8.98;;
84672;SDS011;74899;42.256;23.284;2024-02-15T14:27:46;7.72;;;6.68;;
84672;SDS011;74899;42.256;23.284;2024-02-15T14:30:12;7.32;;;4.78;;
84672;SDS011;74899;42.256;23.284;2024-02-15T14:32:57;5.60;;;4.00;;
84672;SDS011;74899;42.256;23.284;2024-02-15T14:35:26;4.07;;;3.78;;
84672;SDS011;74899;42.256;23.284;2024-02-15T14:37:55;4.65;;;4.22;;
84672;SDS011;74899;42.256;23.284;2024-02-15T14:40:24;7.97;;;5.90;;
84672;SDS011;74899;42.256;23.284;2024-02-15T14:42:50;4.53;;;4.18;;
84672;SDS011;74899;42.256;23.284;2024-02-15T14:45:16;17.55;;;11.63;;
84672;SDS011;74899;42.256;23.284;2024-02-15T14:47:42;71.32;;;28.17;;
84672;SDS011;74899;42.256;23.284;2024-02-15T14:50:08;14.07;;;10.55;;
84672;SDS011;74899;42.256;23.284;2024-02-15T14:52:35;7.68;;;6.68;;
84672;SDS011;74899;42.256;23.284;2024-02-15T14:55:02;6.32;;;5.30;;
84672;SDS011;74899;42.256;23.284;2024-02-15T14:57:39;6.10;;;5.47;;
84672;SDS011;74899;42.256;23.284;2024-02-15T15:00:05;6.75;;;6.03;;
84672;SDS011;74899;42.256;23.284;2024-02-15T15:02:37;6.70;;;5.82;;
84672;SDS011;74899;42.256;23.284;2024-02-15T15:05:02;7.30;;;6.60;;
84672;SDS011;74899;42.256;23.284;2024-02-15T15:07:48;8.25;;;5.05;;